sensor_id;sensor_type;location;lat;lon;timestamp;temperature;humidity
10873;DHT22;34586;53.616;10.032;2022-11-03T00:00:25;8.00;99.90
10873;DHT22;34586;53.616;10.032;2022-11-03T00:02:51;8.00;99.90
10873;DHT22;34586;53.616;10.032;2022-11-03T00:05:16;8.00;99.90
10873;DHT22;34586;53.616;10.032;2022-11-03T00:08:03;7.90;99.90
10873;DHT22;34586;53.616;10.032;2022-11-03T00:10:30;7.90;99.90
10873;DHT22;34586;53.616;10.032;2022-11-03T00:12:55;7.90;99.90
10873;DHT22;34586;53.616;10.032;2022-11-03T00:15:21;7.90;99.90
10873;DHT22;34586;53.616;10.032;2022-11-03T00:17:48;7.80;99.90
10873;DHT22;34586;53.616;10.032;2022-11-03T00:20:14;7.80;99.90
10873;DHT22;34586;53.616;10.032;2022-11-03T00:22:39;7.80;99.90
10873;DHT22;34586;53.616;10.032;2022-11-03T00:25:06;7.80;99.90
10873;DHT22;34586;53.616;10.032;2022-11-03T00:27:31;7.70;99.90
10873;DHT22;34586;53.616;10.032;2022-11-03T00:29:58;7.70;99.90
10873;DHT22;34586;53.616;10.032;2022-11-03T00:32:24;8.30;99.90
10873;DHT22;34586;53.616;10.032;2022-11-03T00:34:49;7.70;99.90
10873;DHT22;34586;53.616;10.032;2022-11-03T00:37:15;7.70;99.90
10873;DHT22;34586;53.616;10.032;2022-11-03T00:39:41;7.60;99.90
10873;DHT22;34586;53.616;10.032;2022-11-03T00:42:07;7.70;99.90
10873;DHT22;34586;53.616;10.032;2022-11-03T00:44:32;7.60;99.90
10873;DHT22;34586;53.616;10.032;2022-11-03T00:46:58;7.70;99.90
10873;DHT22;34586;53.616;10.032;2022-11-03T00:49:23;7.70;99.90
10873;DHT22;34586;53.616;10.032;2022-11-03T00:51:49;7.70;99.90
10873;DHT22;34586;53.616;10.032;2022-11-03T00:54:15;7.70;99.90
10873;DHT22;34586;53.616;10.032;2022-11-03T00:56:41;7.70;99.90
10873;DHT22;34586;53.616;10.032;2022-11-03T00:59:09;7.70;99.90
10873;DHT22;34586;53.616;10.032;2022-11-03T01:01:40;7.70;99.90
10873;DHT22;34586;53.616;10.032;2022-11-03T01:04:06;7.70;99.90
10873;DHT22;34586;53.616;10.032;2022-11-03T01:06:52;9.00;99.90
10873;DHT22;34586;53.616;10.032;2022-11-03T01:14:40;7.70;99.90
10873;DHT22;34586;53.616;10.032;2022-11-03T01:17:26;7.80;99.90
10873;DHT22;34586;53.616;10.032;2022-11-03T01:19:54;7.80;99.90
10873;DHT22;34586;53.616;10.032;2022-11-03T01:22:21;7.90;99.90
10873;DHT22;34586;53.616;10.032;2022-11-03T01:24:47;7.80;99.80
10873;DHT22;34586;53.616;10.032;2022-11-03T01:27:18;7.80;99.90
10873;DHT22;34586;53.616;10.032;2022-11-03T01:29:44;7.90;99.90
10873;DHT22;34586;53.616;10.032;2022-11-03T01:32:10;7.90;99.90
10873;DHT22;34586;53.616;10.032;2022-11-03T01:34:36;7.80;99.90
10873;DHT22;34586;53.616;10.032;2022-11-03T01:37:03;7.90;99.90
10873;DHT22;34586;53.616;10.032;2022-11-03T01:39:29;7.90;99.90
10873;DHT22;34586;53.616;10.032;2022-11-03T01:41:54;7.90;99.90
10873;DHT22;34586;53.616;10.032;2022-11-03T01:44:33;7.90;96.70
10873;DHT22;34586;53.616;10.032;2022-11-03T01:47:20;7.90;99.90
10873;DHT22;34586;53.616;10.032;2022-11-03T01:50:04;7.90;99.90
10873;DHT22;34586;53.616;10.032;2022-11-03T01:52:41;7.90;99.90
10873;DHT22;34586;53.616;10.032;2022-11-03T01:55:13;7.90;97.70
10873;DHT22;34586;53.616;10.032;2022-11-03T01:57:44;7.90;90.50
10873;DHT22;34586;53.616;10.032;2022-11-03T02:00:11;8.00;93.30
10873;DHT22;34586;53.616;10.032;2022-11-03T02:02:37;8.00;97.50
10873;DHT22;34586;53.616;10.032;2022-11-03T02:05:05;8.00;97.70
10873;DHT22;34586;53.616;10.032;2022-11-03T02:07:48;8.00;97.20
10873;DHT22;34586;53.616;10.032;2022-11-03T02:10:17;8.00;81.10
10873;DHT22;34586;53.616;10.032;2022-11-03T02:12:43;8.00;96.30
10873;DHT22;34586;53.616;10.032;2022-11-03T02:15:12;8.00;89.00
10873;DHT22;34586;53.616;10.032;2022-11-03T02:17:39;8.00;91.00
10873;DHT22;34586;53.616;10.032;2022-11-03T02:20:09;8.00;86.50
10873;DHT22;34586;53.616;10.032;2022-11-03T02:22:46;8.00;97.90
10873;DHT22;34586;53.616;10.032;2022-11-03T02:28:12;8.00;89.10
10873;DHT22;34586;53.616;10.032;2022-11-03T02:33:23;8.00;99.90
10873;DHT22;34586;53.616;10.032;2022-11-03T02:38:58;8.00;95.40
10873;DHT22;34586;53.616;10.032;2022-11-03T02:41:26;8.00;99.90
10873;DHT22;34586;53.616;10.032;2022-11-03T02:43:54;8.40;94.70
10873;DHT22;34586;53.616;10.032;2022-11-03T02:46:23;8.00;81.20
10873;DHT22;34586;53.616;10.032;2022-11-03T02:48:50;8.00;98.40
10873;DHT22;34586;53.616;10.032;2022-11-03T02:51:16;8.00;97.40
10873;DHT22;34586;53.616;10.032;2022-11-03T02:53:48;8.00;99.10
10873;DHT22;34586;53.616;10.032;2022-11-03T02:56:19;8.00;98.30
10873;DHT22;34586;53.616;10.032;2022-11-03T02:59:01;8.10;95.80
10873;DHT22;34586;53.616;10.032;2022-11-03T03:01:39;8.10;85.50
10873;DHT22;34586;53.616;10.032;2022-11-03T03:04:24;8.10;93.30
10873;DHT22;34586;53.616;10.032;2022-11-03T03:07:00;8.10;98.30
10873;DHT22;34586;53.616;10.032;2022-11-03T03:09:38;8.10;67.80
10873;DHT22;34586;53.616;10.032;2022-11-03T03:12:07;8.10;82.90
10873;DHT22;34586;53.616;10.032;2022-11-03T03:14:39;8.10;90.80
10873;DHT22;34586;53.616;10.032;2022-11-03T03:19:58;8.00;79.30
10873;DHT22;34586;53.616;10.032;2022-11-03T03:22:57;8.00;85.60
10873;DHT22;34586;53.616;10.032;2022-11-03T03:25:28;8.00;93.80
10873;DHT22;34586;53.616;10.032;2022-11-03T03:28:10;7.90;91.70
10873;DHT22;34586;53.616;10.032;2022-11-03T03:30:38;7.90;93.00
10873;DHT22;34586;53.616;10.032;2022-11-03T03:33:08;9.00;99.90
10873;DHT22;34586;53.616;10.032;2022-11-03T03:35:39;7.80;99.90
10873;DHT22;34586;53.616;10.032;2022-11-03T03:38:09;7.80;99.90
10873;DHT22;34586;53.616;10.032;2022-11-03T03:40:39;7.70;99.90
10873;DHT22;34586;53.616;10.032;2022-11-03T03:43:08;7.70;99.90
10873;DHT22;34586;53.616;10.032;2022-11-03T03:45:35;7.70;99.90
10873;DHT22;34586;53.616;10.032;2022-11-03T03:48:03;7.60;99.90
10873;DHT22;34586;53.616;10.032;2022-11-03T03:50:33;7.60;99.90
10873;DHT22;34586;53.616;10.032;2022-11-03T03:53:00;7.60;99.90
10873;DHT22;34586;53.616;10.032;2022-11-03T03:55:36;7.50;99.90
10873;DHT22;34586;53.616;10.032;2022-11-03T03:58:06;7.50;99.90
10873;DHT22;34586;53.616;10.032;2022-11-03T04:00:34;7.50;99.90
10873;DHT22;34586;53.616;10.032;2022-11-03T04:02:59;7.50;99.90
10873;DHT22;34586;53.616;10.032;2022-11-03T04:05:25;7.50;99.90
10873;DHT22;34586;53.616;10.032;2022-11-03T04:07:51;7.50;99.90
10873;DHT22;34586;53.616;10.032;2022-11-03T04:10:21;7.50;99.90
10873;DHT22;34586;53.616;10.032;2022-11-03T04:12:48;7.50;99.90
10873;DHT22;34586;53.616;10.032;2022-11-03T04:15:32;7.40;99.90
10873;DHT22;34586;53.616;10.032;2022-11-03T04:18:18;7.50;99.90
10873;DHT22;34586;53.616;10.032;2022-11-03T04:21:02;7.50;99.90
10873;DHT22;34586;53.616;10.032;2022-11-03T04:23:47;7.50;99.90
10873;DHT22;34586;53.616;10.032;2022-11-03T04:26:15;7.50;99.90
10873;DHT22;34586;53.616;10.032;2022-11-03T04:28:41;7.50;99.90
10873;DHT22;34586;53.616;10.032;2022-11-03T04:31:17;7.50;99.90
10873;DHT22;34586;53.616;10.032;2022-11-03T04:33:43;7.60;99.90
10873;DHT22;34586;53.616;10.032;2022-11-03T04:36:25;7.50;99.90
10873;DHT22;34586;53.616;10.032;2022-11-03T04:38:51;7.60;99.90
10873;DHT22;34586;53.616;10.032;2022-11-03T04:41:27;7.60;99.90
10873;DHT22;34586;53.616;10.032;2022-11-03T04:43:54;7.60;99.90
10873;DHT22;34586;53.616;10.032;2022-11-03T04:46:28;7.60;99.90
10873;DHT22;34586;53.616;10.032;2022-11-03T04:48:57;7.60;99.90
10873;DHT22;34586;53.616;10.032;2022-11-03T04:51:25;7.50;99.90
10873;DHT22;34586;53.616;10.032;2022-11-03T04:54:04;7.60;99.90
10873;DHT22;34586;53.616;10.032;2022-11-03T04:56:30;7.60;99.90
10873;DHT22;34586;53.616;10.032;2022-11-03T04:58:58;7.60;99.90
10873;DHT22;34586;53.616;10.032;2022-11-03T05:01:26;7.60;99.90
10873;DHT22;34586;53.616;10.032;2022-11-03T05:03:53;7.60;99.90
10873;DHT22;34586;53.616;10.032;2022-11-03T05:06:27;7.60;99.90
10873;DHT22;34586;53.616;10.032;2022-11-03T05:08:57;7.60;99.90
10873;DHT22;34586;53.616;10.032;2022-11-03T05:11:38;7.60;99.90
10873;DHT22;34586;53.616;10.032;2022-11-03T05:14:25;7.60;99.90
10873;DHT22;34586;53.616;10.032;2022-11-03T05:16:53;7.60;99.90
10873;DHT22;34586;53.616;10.032;2022-11-03T05:19:26;7.60;99.90
10873;DHT22;34586;53.616;10.032;2022-11-03T05:21:53;7.70;99.90
10873;DHT22;34586;53.616;10.032;2022-11-03T05:24:21;7.60;99.90
10873;DHT22;34586;53.616;10.032;2022-11-03T05:26:55;7.70;99.90
10873;DHT22;34586;53.616;10.032;2022-11-03T05:29:34;7.70;99.90
10873;DHT22;34586;53.616;10.032;2022-11-03T05:32:00;7.70;99.90
10873;DHT22;34586;53.616;10.032;2022-11-03T05:36:58;7.60;99.90
10873;DHT22;34586;53.616;10.032;2022-11-03T05:42:00;7.70;99.90
10873;DHT22;34586;53.616;10.032;2022-11-03T05:44:38;7.70;99.90
10873;DHT22;34586;53.616;10.032;2022-11-03T05:47:24;7.60;99.90
10873;DHT22;34586;53.616;10.032;2022-11-03T05:49:53;7.60;99.90
10873;DHT22;34586;53.616;10.032;2022-11-03T05:52:25;7.70;99.90
10873;DHT22;34586;53.616;10.032;2022-11-03T05:54:58;7.70;99.90
10873;DHT22;34586;53.616;10.032;2022-11-03T05:57:25;7.70;99.90
10873;DHT22;34586;53.616;10.032;2022-11-03T05:59:52;7.60;99.90
10873;DHT22;34586;53.616;10.032;2022-11-03T06:05:00;7.70;99.90
10873;DHT22;34586;53.616;10.032;2022-11-03T06:07:29;7.70;99.90
10873;DHT22;34586;53.616;10.032;2022-11-03T06:09:57;7.70;99.90
10873;DHT22;34586;53.616;10.032;2022-11-03T06:12:24;7.60;99.90
10873;DHT22;34586;53.616;10.032;2022-11-03T06:14:52;7.70;99.90
10873;DHT22;34586;53.616;10.032;2022-11-03T06:17:27;7.70;99.90
10873;DHT22;34586;53.616;10.032;2022-11-03T06:19:56;7.70;99.90
10873;DHT22;34586;53.616;10.032;2022-11-03T06:25:10;7.70;99.90
10873;DHT22;34586;53.616;10.032;2022-11-03T06:27:39;7.70;99.90
10873;DHT22;34586;53.616;10.032;2022-11-03T06:30:23;7.70;99.90
10873;DHT22;34586;53.616;10.032;2022-11-03T06:32:49;7.70;99.90
10873;DHT22;34586;53.616;10.032;2022-11-03T06:35:15;7.70;99.90
10873;DHT22;34586;53.616;10.032;2022-11-03T06:37:42;7.80;99.90
10873;DHT22;34586;53.616;10.032;2022-11-03T06:42:34;7.80;99.90
10873;DHT22;34586;53.616;10.032;2022-11-03T06:45:01;7.80;99.90
10873;DHT22;34586;53.616;10.032;2022-11-03T06:47:39;7.80;99.90
10873;DHT22;34586;53.616;10.032;2022-11-03T06:52:52;7.90;99.90
10873;DHT22;34586;53.616;10.032;2022-11-03T06:55:30;7.90;99.90
10873;DHT22;34586;53.616;10.032;2022-11-03T06:58:22;7.90;99.90
10873;DHT22;34586;53.616;10.032;2022-11-03T07:00:49;7.90;99.90
10873;DHT22;34586;53.616;10.032;2022-11-03T07:03:30;8.00;99.90
10873;DHT22;34586;53.616;10.032;2022-11-03T07:06:10;8.10;99.90
10873;DHT22;34586;53.616;10.032;2022-11-03T07:08:50;8.10;99.90
10873;DHT22;34586;53.616;10.032;2022-11-03T07:11:23;8.20;99.90
10873;DHT22;34586;53.616;10.032;2022-11-03T07:13:51;8.20;99.90
10873;DHT22;34586;53.616;10.032;2022-11-03T07:16:24;8.20;99.90
10873;DHT22;34586;53.616;10.032;2022-11-03T07:18:50;8.30;99.90
10873;DHT22;34586;53.616;10.032;2022-11-03T07:23:44;8.40;99.90
10873;DHT22;34586;53.616;10.032;2022-11-03T07:26:10;8.50;99.90
10873;DHT22;34586;53.616;10.032;2022-11-03T07:28:37;8.50;99.90
10873;DHT22;34586;53.616;10.032;2022-11-03T07:31:22;8.60;99.90
10873;DHT22;34586;53.616;10.032;2022-11-03T07:33:51;8.60;99.90
10873;DHT22;34586;53.616;10.032;2022-11-03T07:36:21;8.70;99.90
10873;DHT22;34586;53.616;10.032;2022-11-03T07:38:51;9.50;99.90
10873;DHT22;34586;53.616;10.032;2022-11-03T07:41:21;8.80;93.60
10873;DHT22;34586;53.616;10.032;2022-11-03T07:43:53;8.80;90.30
10873;DHT22;34586;53.616;10.032;2022-11-03T07:46:20;8.80;92.50
10873;DHT22;34586;53.616;10.032;2022-11-03T07:48:48;8.90;97.20
10873;DHT22;34586;53.616;10.032;2022-11-03T07:51:36;9.90;76.20
10873;DHT22;34586;53.616;10.032;2022-11-03T07:54:22;8.90;82.00
10873;DHT22;34586;53.616;10.032;2022-11-03T07:56:55;9.10;88.80
10873;DHT22;34586;53.616;10.032;2022-11-03T08:01:55;9.00;99.90
10873;DHT22;34586;53.616;10.032;2022-11-03T08:04:35;9.00;99.90
10873;DHT22;34586;53.616;10.032;2022-11-03T08:07:01;9.00;97.70
10873;DHT22;34586;53.616;10.032;2022-11-03T08:09:27;9.10;98.80
10873;DHT22;34586;53.616;10.032;2022-11-03T08:11:52;9.10;92.90
10873;DHT22;34586;53.616;10.032;2022-11-03T08:14:18;9.20;60.10
10873;DHT22;34586;53.616;10.032;2022-11-03T08:16:44;9.20;90.00
10873;DHT22;34586;53.616;10.032;2022-11-03T08:19:10;9.30;96.90
10873;DHT22;34586;53.616;10.032;2022-11-03T08:21:35;9.30;88.70
10873;DHT22;34586;53.616;10.032;2022-11-03T08:24:01;9.40;90.20
10873;DHT22;34586;53.616;10.032;2022-11-03T08:26:27;9.50;84.30
10873;DHT22;34586;53.616;10.032;2022-11-03T08:28:52;9.50;47.40
10873;DHT22;34586;53.616;10.032;2022-11-03T08:31:18;9.60;72.50
10873;DHT22;34586;53.616;10.032;2022-11-03T08:33:46;9.60;66.60
10873;DHT22;34586;53.616;10.032;2022-11-03T08:36:13;9.70;30.50
10873;DHT22;34586;53.616;10.032;2022-11-03T08:38:40;9.80;69.70
10873;DHT22;34586;53.616;10.032;2022-11-03T08:41:09;9.90;55.70
10873;DHT22;34586;53.616;10.032;2022-11-03T08:43:34;9.90;1.00
10873;DHT22;34586;53.616;10.032;2022-11-03T08:46:00;10.00;20.90
10873;DHT22;34586;53.616;10.032;2022-11-03T08:48:26;10.00;18.60
10873;DHT22;34586;53.616;10.032;2022-11-03T08:50:52;10.10;25.10
10873;DHT22;34586;53.616;10.032;2022-11-03T08:53:25;10.20;1.00
10873;DHT22;34586;53.616;10.032;2022-11-03T08:55:54;10.20;1.00
10873;DHT22;34586;53.616;10.032;2022-11-03T08:58:22;10.30;1.00
10873;DHT22;34586;53.616;10.032;2022-11-03T09:00:48;10.50;1.00
10873;DHT22;34586;53.616;10.032;2022-11-03T09:03:14;10.50;1.00
10873;DHT22;34586;53.616;10.032;2022-11-03T09:05:41;10.60;1.00
10873;DHT22;34586;53.616;10.032;2022-11-03T09:08:07;10.70;1.00
10873;DHT22;34586;53.616;10.032;2022-11-03T09:10:33;10.80;1.00
10873;DHT22;34586;53.616;10.032;2022-11-03T09:12:58;10.90;1.00
10873;DHT22;34586;53.616;10.032;2022-11-03T09:15:24;11.00;1.00
10873;DHT22;34586;53.616;10.032;2022-11-03T09:17:50;11.00;1.00
10873;DHT22;34586;53.616;10.032;2022-11-03T09:20:17;11.10;1.00
10873;DHT22;34586;53.616;10.032;2022-11-03T09:22:43;11.10;1.00
10873;DHT22;34586;53.616;10.032;2022-11-03T09:25:10;11.20;1.00
10873;DHT22;34586;53.616;10.032;2022-11-03T09:27:36;11.30;1.00
10873;DHT22;34586;53.616;10.032;2022-11-03T09:30:02;11.40;1.00
10873;DHT22;34586;53.616;10.032;2022-11-03T09:32:28;11.50;1.00
10873;DHT22;34586;53.616;10.032;2022-11-03T09:34:54;11.50;1.00
10873;DHT22;34586;53.616;10.032;2022-11-03T09:37:19;11.50;1.00
10873;DHT22;34586;53.616;10.032;2022-11-03T09:39:47;11.80;1.00
10873;DHT22;34586;53.616;10.032;2022-11-03T09:42:13;12.20;1.00
10873;DHT22;34586;53.616;10.032;2022-11-03T09:44:39;11.70;1.00
10873;DHT22;34586;53.616;10.032;2022-11-03T09:47:05;11.70;1.00
10873;DHT22;34586;53.616;10.032;2022-11-03T09:49:32;11.60;1.00
10873;DHT22;34586;53.616;10.032;2022-11-03T09:52:00;11.80;1.00
10873;DHT22;34586;53.616;10.032;2022-11-03T09:54:26;11.90;1.00
10873;DHT22;34586;53.616;10.032;2022-11-03T09:56:56;12.00;99.90
10873;DHT22;34586;53.616;10.032;2022-11-03T09:59:23;12.00;1.00
10873;DHT22;34586;53.616;10.032;2022-11-03T10:01:50;12.30;99.90
10873;DHT22;34586;53.616;10.032;2022-11-03T10:04:24;12.20;99.90
10873;DHT22;34586;53.616;10.032;2022-11-03T10:06:50;12.00;99.90
10873;DHT22;34586;53.616;10.032;2022-11-03T10:09:17;12.30;1.00
10873;DHT22;34586;53.616;10.032;2022-11-03T10:11:45;12.30;99.90
10873;DHT22;34586;53.616;10.032;2022-11-03T10:14:14;12.50;84.60
10873;DHT22;34586;53.616;10.032;2022-11-03T10:16:42;12.50;99.90
10873;DHT22;34586;53.616;10.032;2022-11-03T10:19:11;12.60;99.90
10873;DHT22;34586;53.616;10.032;2022-11-03T10:21:38;12.70;1.00
10873;DHT22;34586;53.616;10.032;2022-11-03T10:24:10;12.70;1.00
10873;DHT22;34586;53.616;10.032;2022-11-03T10:26:48;12.70;99.90
10873;DHT22;34586;53.616;10.032;2022-11-03T10:29:25;12.70;99.90
10873;DHT22;34586;53.616;10.032;2022-11-03T10:31:55;12.70;99.90
10873;DHT22;34586;53.616;10.032;2022-11-03T10:34:25;12.80;99.90
10873;DHT22;34586;53.616;10.032;2022-11-03T10:39:36;13.00;99.90
10873;DHT22;34586;53.616;10.032;2022-11-03T10:42:02;13.00;48.70
10873;DHT22;34586;53.616;10.032;2022-11-03T10:44:28;13.00;1.00
10873;DHT22;34586;53.616;10.032;2022-11-03T10:47:00;13.10;99.90
10873;DHT22;34586;53.616;10.032;2022-11-03T10:49:28;13.10;1.00
10873;DHT22;34586;53.616;10.032;2022-11-03T10:52:00;13.10;1.00
10873;DHT22;34586;53.616;10.032;2022-11-03T10:54:33;13.30;99.90
10873;DHT22;34586;53.616;10.032;2022-11-03T10:57:00;13.20;99.90
10873;DHT22;34586;53.616;10.032;2022-11-03T10:59:33;13.20;1.00
10873;DHT22;34586;53.616;10.032;2022-11-03T11:02:01;13.40;99.90
10873;DHT22;34586;53.616;10.032;2022-11-03T11:04:28;13.40;1.00
10873;DHT22;34586;53.616;10.032;2022-11-03T11:06:56;13.50;25.50
10873;DHT22;34586;53.616;10.032;2022-11-03T11:09:26;13.60;99.90
10873;DHT22;34586;53.616;10.032;2022-11-03T11:12:05;13.70;99.90
10873;DHT22;34586;53.616;10.032;2022-11-03T11:17:01;13.90;1.00
10873;DHT22;34586;53.616;10.032;2022-11-03T11:19:28;13.90;1.00
10873;DHT22;34586;53.616;10.032;2022-11-03T11:30:00;14.00;1.00
10873;DHT22;34586;53.616;10.032;2022-11-03T11:35:07;14.20;1.00
10873;DHT22;34586;53.616;10.032;2022-11-03T11:37:35;14.20;99.90
10873;DHT22;34586;53.616;10.032;2022-11-03T11:48:30;14.20;1.00
10873;DHT22;34586;53.616;10.032;2022-11-03T11:50:57;14.10;99.90
10873;DHT22;34586;53.616;10.032;2022-11-03T11:53:23;14.10;1.00
10873;DHT22;34586;53.616;10.032;2022-11-03T11:56:00;14.10;99.90
10873;DHT22;34586;53.616;10.032;2022-11-03T11:58:46;14.00;1.00
10873;DHT22;34586;53.616;10.032;2022-11-03T12:01:23;14.10;1.00
10873;DHT22;34586;53.616;10.032;2022-11-03T12:03:51;14.00;1.00
10873;DHT22;34586;53.616;10.032;2022-11-03T12:06:34;14.40;1.00
10873;DHT22;34586;53.616;10.032;2022-11-03T12:09:13;14.10;99.90
10873;DHT22;34586;53.616;10.032;2022-11-03T12:14:33;14.30;1.00
10873;DHT22;34586;53.616;10.032;2022-11-03T12:19:51;14.40;23.40
10873;DHT22;34586;53.616;10.032;2022-11-03T12:29:57;14.40;99.90
10873;DHT22;34586;53.616;10.032;2022-11-03T12:32:30;14.40;99.90
10873;DHT22;34586;53.616;10.032;2022-11-03T12:34:55;14.50;99.90
10873;DHT22;34586;53.616;10.032;2022-11-03T12:37:22;14.40;1.00
10873;DHT22;34586;53.616;10.032;2022-11-03T12:39:47;14.50;1.00
10873;DHT22;34586;53.616;10.032;2022-11-03T12:42:13;14.50;99.90
10873;DHT22;34586;53.616;10.032;2022-11-03T12:44:39;14.70;1.00
10873;DHT22;34586;53.616;10.032;2022-11-03T12:47:04;14.80;1.00
10873;DHT22;34586;53.616;10.032;2022-11-03T12:49:30;14.90;7.20
10873;DHT22;34586;53.616;10.032;2022-11-03T12:51:55;14.90;99.90
10873;DHT22;34586;53.616;10.032;2022-11-03T12:54:27;14.90;1.00
10873;DHT22;34586;53.616;10.032;2022-11-03T12:56:52;15.00;1.00
10873;DHT22;34586;53.616;10.032;2022-11-03T12:59:18;14.90;99.90
10873;DHT22;34586;53.616;10.032;2022-11-03T13:01:44;14.70;1.00
10873;DHT22;34586;53.616;10.032;2022-11-03T13:04:09;14.60;1.00
10873;DHT22;34586;53.616;10.032;2022-11-03T13:06:35;14.50;99.90
10873;DHT22;34586;53.616;10.032;2022-11-03T13:09:00;14.40;99.90
10873;DHT22;34586;53.616;10.032;2022-11-03T13:11:27;14.40;1.00
10873;DHT22;34586;53.616;10.032;2022-11-03T13:14:11;14.30;99.90
10873;DHT22;34586;53.616;10.032;2022-11-03T13:16:37;14.30;1.00
10873;DHT22;34586;53.616;10.032;2022-11-03T13:19:02;14.30;51.90
10873;DHT22;34586;53.616;10.032;2022-11-03T13:21:28;14.20;99.90
10873;DHT22;34586;53.616;10.032;2022-11-03T13:23:54;14.20;1.00
10873;DHT22;34586;53.616;10.032;2022-11-03T13:26:20;14.10;99.90
10873;DHT22;34586;53.616;10.032;2022-11-03T13:28:46;14.20;99.90
10873;DHT22;34586;53.616;10.032;2022-11-03T13:31:11;14.10;1.00
10873;DHT22;34586;53.616;10.032;2022-11-03T13:33:37;14.20;99.90
10873;DHT22;34586;53.616;10.032;2022-11-03T13:36:03;14.10;99.90
10873;DHT22;34586;53.616;10.032;2022-11-03T13:38:29;14.20;1.00
10873;DHT22;34586;53.616;10.032;2022-11-03T13:40:55;14.20;99.90
10873;DHT22;34586;53.616;10.032;2022-11-03T13:43:20;14.20;20.40
10873;DHT22;34586;53.616;10.032;2022-11-03T13:45:46;14.20;99.90
10873;DHT22;34586;53.616;10.032;2022-11-03T13:48:11;14.30;1.00
10873;DHT22;34586;53.616;10.032;2022-11-03T13:50:37;14.30;1.00
10873;DHT22;34586;53.616;10.032;2022-11-03T13:53:03;14.30;1.00
10873;DHT22;34586;53.616;10.032;2022-11-03T13:55:28;14.30;99.90
10873;DHT22;34586;53.616;10.032;2022-11-03T13:57:54;14.10;1.00
10873;DHT22;34586;53.616;10.032;2022-11-03T14:00:21;14.00;99.90
10873;DHT22;34586;53.616;10.032;2022-11-03T14:02:47;13.90;1.00
10873;DHT22;34586;53.616;10.032;2022-11-03T14:05:15;13.80;99.90
10873;DHT22;34586;53.616;10.032;2022-11-03T14:07:41;13.70;99.90
10873;DHT22;34586;53.616;10.032;2022-11-03T14:10:07;13.60;99.90
10873;DHT22;34586;53.616;10.032;2022-11-03T14:12:32;13.60;99.90
10873;DHT22;34586;53.616;10.032;2022-11-03T14:15:01;13.60;1.00
10873;DHT22;34586;53.616;10.032;2022-11-03T14:17:28;13.70;1.00
10873;DHT22;34586;53.616;10.032;2022-11-03T14:19:54;13.50;99.90
10873;DHT22;34586;53.616;10.032;2022-11-03T14:22:20;13.50;99.90
10873;DHT22;34586;53.616;10.032;2022-11-03T14:24:46;13.30;99.90
10873;DHT22;34586;53.616;10.032;2022-11-03T14:27:12;13.40;1.00
10873;DHT22;34586;53.616;10.032;2022-11-03T14:29:40;13.40;1.00
10873;DHT22;34586;53.616;10.032;2022-11-03T14:32:06;13.40;1.00
10873;DHT22;34586;53.616;10.032;2022-11-03T14:34:34;13.30;99.90
10873;DHT22;34586;53.616;10.032;2022-11-03T14:37:00;13.30;99.90
10873;DHT22;34586;53.616;10.032;2022-11-03T14:39:25;13.20;99.90
10873;DHT22;34586;53.616;10.032;2022-11-03T14:41:51;13.30;99.90
10873;DHT22;34586;53.616;10.032;2022-11-03T14:46:55;13.20;1.00
10873;DHT22;34586;53.616;10.032;2022-11-03T14:49:22;13.20;1.00
10873;DHT22;34586;53.616;10.032;2022-11-03T14:51:47;13.10;99.90
10873;DHT22;34586;53.616;10.032;2022-11-03T14:54:13;13.10;1.00
10873;DHT22;34586;53.616;10.032;2022-11-03T14:56:38;13.10;1.00
10873;DHT22;34586;53.616;10.032;2022-11-03T14:59:04;13.10;1.00
10873;DHT22;34586;53.616;10.032;2022-11-03T15:01:30;13.00;1.00
10873;DHT22;34586;53.616;10.032;2022-11-03T15:03:56;13.00;1.00
10873;DHT22;34586;53.616;10.032;2022-11-03T15:06:22;13.00;1.00
10873;DHT22;34586;53.616;10.032;2022-11-03T15:08:47;13.00;1.00
10873;DHT22;34586;53.616;10.032;2022-11-03T15:11:13;13.00;1.00
10873;DHT22;34586;53.616;10.032;2022-11-03T15:13:39;13.00;1.00
10873;DHT22;34586;53.616;10.032;2022-11-03T15:16:05;13.00;1.00
10873;DHT22;34586;53.616;10.032;2022-11-03T15:18:31;13.00;1.00
10873;DHT22;34586;53.616;10.032;2022-11-03T15:20:56;13.00;1.00
10873;DHT22;34586;53.616;10.032;2022-11-03T15:23:22;13.70;1.00
10873;DHT22;34586;53.616;10.032;2022-11-03T15:25:48;12.80;1.00
10873;DHT22;34586;53.616;10.032;2022-11-03T15:28:13;12.80;1.00
10873;DHT22;34586;53.616;10.032;2022-11-03T15:30:39;12.80;1.00
10873;DHT22;34586;53.616;10.032;2022-11-03T15:33:04;12.70;1.00
10873;DHT22;34586;53.616;10.032;2022-11-03T15:35:30;12.70;1.00
10873;DHT22;34586;53.616;10.032;2022-11-03T15:37:58;12.70;1.00
10873;DHT22;34586;53.616;10.032;2022-11-03T15:40:24;12.60;1.00
10873;DHT22;34586;53.616;10.032;2022-11-03T15:42:50;12.60;1.00
10873;DHT22;34586;53.616;10.032;2022-11-03T15:45:16;12.60;1.00
10873;DHT22;34586;53.616;10.032;2022-11-03T15:47:42;12.60;1.00
10873;DHT22;34586;53.616;10.032;2022-11-03T15:50:10;12.70;1.00
10873;DHT22;34586;53.616;10.032;2022-11-03T15:52:36;13.00;1.00
10873;DHT22;34586;53.616;10.032;2022-11-03T15:55:03;12.60;1.00
10873;DHT22;34586;53.616;10.032;2022-11-03T15:57:29;12.50;1.00
10873;DHT22;34586;53.616;10.032;2022-11-03T15:59:54;12.50;1.00
10873;DHT22;34586;53.616;10.032;2022-11-03T16:02:23;12.50;1.00
10873;DHT22;34586;53.616;10.032;2022-11-03T16:04:49;12.50;1.00
10873;DHT22;34586;53.616;10.032;2022-11-03T16:07:14;12.40;1.00
10873;DHT22;34586;53.616;10.032;2022-11-03T16:09:40;12.40;1.00
10873;DHT22;34586;53.616;10.032;2022-11-03T16:12:05;12.40;1.00
10873;DHT22;34586;53.616;10.032;2022-11-03T16:14:31;12.40;1.00
10873;DHT22;34586;53.616;10.032;2022-11-03T16:16:57;12.30;1.00
10873;DHT22;34586;53.616;10.032;2022-11-03T16:19:22;12.30;1.00
10873;DHT22;34586;53.616;10.032;2022-11-03T16:21:48;12.70;1.00
10873;DHT22;34586;53.616;10.032;2022-11-03T16:24:16;12.30;1.00
10873;DHT22;34586;53.616;10.032;2022-11-03T16:26:43;12.30;1.00
10873;DHT22;34586;53.616;10.032;2022-11-03T16:29:09;12.30;1.00
10873;DHT22;34586;53.616;10.032;2022-11-03T16:31:36;12.40;1.00
10873;DHT22;34586;53.616;10.032;2022-11-03T16:34:02;12.30;1.00
10873;DHT22;34586;53.616;10.032;2022-11-03T16:36:29;12.20;1.00
10873;DHT22;34586;53.616;10.032;2022-11-03T16:38:55;12.40;1.00
10873;DHT22;34586;53.616;10.032;2022-11-03T16:41:20;12.20;1.00
10873;DHT22;34586;53.616;10.032;2022-11-03T16:43:47;12.20;1.00
10873;DHT22;34586;53.616;10.032;2022-11-03T16:46:14;12.20;1.00
10873;DHT22;34586;53.616;10.032;2022-11-03T16:48:40;12.00;1.00
10873;DHT22;34586;53.616;10.032;2022-11-03T16:51:05;12.20;1.00
10873;DHT22;34586;53.616;10.032;2022-11-03T16:53:32;12.20;1.00
10873;DHT22;34586;53.616;10.032;2022-11-03T16:55:58;12.20;1.00